Gabarus, Canada
Current Conditions -  °F | °C
As of 12:00 PM on Thursday 23 Oct 2014 (Local Time) from CYQY Reporting Station
Broken Clouds Broken Clouds  
Wind Chill: 54°   Ceiling: 1600
Heat Index: 54°   Visibility: 10mi
Dew Point: 46°   Wind: 18mph
Humidity: 77%   Direction: 100°E
Pressure: 30.22"   Gusts: 28mph
Location:  45.83°N, 60.13°W
Report Text: CYQY 231500Z 10016G24KT 10SM BKN016 BKN095 BKN210 12/08 A3022 RMK SC6AC1CI1 CI TR CU ASOCTD SLP236
Loading
Personal Weather Stations






























Interactive Weather Map
Tropical Storm Tracking
New forecast layout! Learn more

10-Day Weather Forecast

Advertisements
Track Severe Weather on mobile